Terminal Aerodrome Forecast
Issued by NWS

Home | Current Version | Previous Version | Graphics & Text | Print | Product List | Glossary On
Versions: 1 2 3 4 5 6 7 8 9 10 11 12 13 14
000
FTUS43 KMPX 171100
TAFRWF
TAF
KRWF 171137Z 1712/1812 34011KT P6SM SCT035
     FM171500 34008KT P6SM SCT035
      TEMPO 1715/1718 BKN030
     FM171800 36009KT P6SM SCT030
     FM180200 VRB03KT P6SM BKN100
     FM180800 12004KT P6SM BKN070=

USA.gov is the U.S. government's official web portal to all federal, state and local government web resources and services.